Terminal Aerodrome Forecast
Issued by NWS

Home | Current Version | Previous Version | Text Only | Print | Product List | Glossary On
Versions: 1 2 3 4 5 6 7 8 9 10 11 12 13 14 15 16
000
FTUS43 KDDC 282322
TAFHYS
TAF
KHYS 282322Z 2900/2924 02016KT P6SM OVC060
     FM290200 02015G22KT P6SM VCSH OVC030
     FM290700 02015G23KT 5SM RA OVC020
     FM291500 02022G30KT 1 1/2SM RA OVC015=

USA.gov is the U.S. government's official web portal to all federal, state and local government web resources and services.